Time;durP1;ratioP1;P1;durP2;ratioP2;P2;SDS_P1;SDS_P2;PMS_P1;PMS_P2;Temp;Humidity;BMP_temperature;BMP_pressure;BME280_temperature;BME280_humidity;BME280_pressure;Samples;Min_cycle;Max_cycle;Signal;HPM_P1;HPM_P2
2022/11/23 00:00:50;;;;;;;23.13;11.73;;;;;;;;;;5086938;28;20297;-88
2022/11/23 00:03:18;;;;;;;24.63;19.80;;;;;;;;;;5076570;28;20221;-88
2022/11/23 00:05:48;;;;;;;31.17;18.07;;;;;;;;;;5094159;28;20205;-87
2022/11/23 00:08:17;;;;;;;31.03;22.53;;;;;;;;;;5078546;28;20281;-88
2022/11/23 00:10:45;;;;;;;25.10;19.30;;;;;;;;;;5074572;28;20220;-88
2022/11/23 00:13:13;;;;;;;27.20;17.33;;;;;;;;;;5090137;28;20293;-87
2022/11/23 00:15:42;;;;;;;25.87;20.30;;;;;;;;;;5094373;28;20224;-88
2022/11/23 00:18:10;;;;;;;21.17;11.13;;;;;;;;;;5080066;28;20228;-87
2022/11/23 00:20:39;;;;;;;23.70;15.37;;;;;;;;;;5094628;28;20197;-87
2022/11/23 00:23:09;;;;;;;25.43;17.97;;;;;;;;;;5080892;28;20224;-87
2022/11/23 00:25:37;;;;;;;26.57;20.20;;;;;;;;;;5082911;28;20296;-87
2022/11/23 00:28:06;;;;;;;25.07;17.80;;;;;;;;;;5080449;28;20198;-87
2022/11/23 00:30:35;;;;;;;23.20;17.40;;;;;;;;;;5081034;28;20203;-87
2022/11/23 00:33:03;;;;;;;16.60;12.00;;;;;;;;;;5090541;28;20255;-87
2022/11/23 00:35:31;;;;;;;30.07;22.23;;;;;;;;;;5073827;28;20293;-87
2022/11/23 00:38:00;;;;;;;28.00;19.93;;;;;;;;;;5074632;28;20201;-87
2022/11/23 00:40:29;;;;;;;32.87;20.13;;;;;;;;;;5075173;28;20201;-88
2022/11/23 00:42:58;;;;;;;20.97;11.77;;;;;;;;;;5081511;28;20208;-87
2022/11/23 00:45:26;;;;;;;30.20;21.10;;;;;;;;;;5079071;28;20202;-88
2022/11/23 00:47:55;;;;;;;22.93;16.43;;;;;;;;;;5082528;28;20201;-88
2022/11/23 00:50:23;;;;;;;29.57;19.37;;;;;;;;;;5092654;28;20209;-85
2022/11/23 00:52:51;;;;;;;29.57;20.83;;;;;;;;;;5092072;28;20213;-86
2022/11/23 00:55:20;;;;;;;20.87;14.47;;;;;;;;;;5080287;28;20206;-87
2022/11/23 00:57:50;;;;;;;29.60;19.70;;;;;;;;;;5093445;28;20197;-87
2022/11/23 01:00:18;;;;;;;25.43;16.20;;;;;;;;;;5076512;28;20207;-87
2022/11/23 01:02:47;;;;;;;28.40;19.13;;;;;;;;;;5084249;28;20197;-88
2022/11/23 01:05:15;;;;;;;25.13;18.90;;;;;;;;;;5092619;28;20216;-88
2022/11/23 01:07:43;;;;;;;26.87;20.10;;;;;;;;;;5082205;28;20247;-87
2022/11/23 01:10:12;;;;;;;27.50;20.50;;;;;;;;;;5098983;28;20233;-87
2022/11/23 01:12:40;;;;;;;24.33;17.83;;;;;;;;;;5085068;28;20212;-87
2022/11/23 01:15:11;;;;;;;29.40;18.97;;;;;;;;;;5096747;28;20191;-87
2022/11/23 01:17:39;;;;;;;23.63;17.20;;;;;;;;;;5107311;28;20201;-87
2022/11/23 01:20:08;;;;;;;24.10;19.40;;;;;;;;;;5090645;28;20229;-87
2022/11/23 01:22:37;;;;;;;26.90;16.67;;;;;;;;;;5090119;28;20198;-86
2022/11/23 01:25:06;;;;;;;22.37;12.60;;;;;;;;;;5095966;28;20271;-87
2022/11/23 01:27:34;;;;;;;22.93;15.47;;;;;;;;;;5093011;28;20231;-87
2022/11/23 01:30:03;;;;;;;21.77;15.67;;;;;;;;;;5092737;28;20255;-87
2022/11/23 01:32:32;;;;;;;26.30;18.50;;;;;;;;;;5106889;28;20235;-88
2022/11/23 01:35:01;;;;;;;25.87;17.07;;;;;;;;;;5095626;28;20272;-87
2022/11/23 01:37:29;;;;;;;20.97;16.43;;;;;;;;;;5080919;28;20197;-88
2022/11/23 01:39:57;;;;;;;25.43;18.30;;;;;;;;;;5083881;28;20208;-87
2022/11/23 01:42:39;;;;;;;20.07;13.70;;;;;;;;;;5082039;28;20192;-88
2022/11/23 01:45:32;;;;;;;16.03;11.13;;;;;;;;;;5077686;28;20231;-87
2022/11/23 01:48:02;;;;;;;28.70;17.63;;;;;;;;;;5084562;28;20208;-87
2022/11/23 01:50:31;;;;;;;25.03;18.97;;;;;;;;;;5098780;28;20271;-88
2022/11/23 01:52:59;;;;;;;25.20;17.63;;;;;;;;;;5096234;28;20214;-87
2022/11/23 01:55:28;;;;;;;25.40;17.70;;;;;;;;;;5093088;28;20199;-88
2022/11/23 01:57:56;;;;;;;25.73;16.30;;;;;;;;;;5085172;28;20201;-88
2022/11/23 02:00:24;;;;;;;23.70;16.77;;;;;;;;;;5079757;28;20203;-87
2022/11/23 02:02:56;;;;;;;20.83;15.27;;;;;;;;;;5084597;28;20214;-87
2022/11/23 02:05:26;;;;;;;19.60;15.17;;;;;;;;;;5088590;28;20197;-87
2022/11/23 02:07:55;;;;;;;15.67;11.90;;;;;;;;;;5075662;28;20288;-87
2022/11/23 02:10:23;;;;;;;19.30;12.93;;;;;;;;;;5094900;28;20200;-87
2022/11/23 02:12:52;;;;;;;22.47;17.40;;;;;;;;;;5082545;28;20193;-86
2022/11/23 02:15:20;;;;;;;21.67;15.40;;;;;;;;;;5088439;28;20194;-87
2022/11/23 02:17:48;;;;;;;22.03;14.57;;;;;;;;;;5088819;28;20204;-86
2022/11/23 02:20:18;;;;;;;21.63;18.90;;;;;;;;;;5095343;28;20193;-86
2022/11/23 02:22:55;;;;;;;30.47;21.80;;;;;;;;;;5097994;28;20233;-87
2022/11/23 02:25:29;;;;;;;27.83;20.70;;;;;;;;;;5076248;28;20224;-87
2022/11/23 02:27:58;;;;;;;19.33;14.53;;;;;;;;;;5098849;28;20288;-87
2022/11/23 02:30:27;;;;;;;20.43;14.47;;;;;;;;;;5094518;28;20294;-86
2022/11/23 02:32:56;;;;;;;22.27;18.10;;;;;;;;;;5095147;28;20200;-87
2022/11/23 02:35:24;;;;;;;24.53;16.23;;;;;;;;;;5083976;28;20304;-87
2022/11/23 02:37:53;;;;;;;24.50;16.17;;;;;;;;;;5092867;28;20250;-87
2022/11/23 02:40:26;;;;;;;25.63;15.63;;;;;;;;;;5082143;28;20224;-87
2022/11/23 02:42:54;;;;;;;22.43;19.80;;;;;;;;;;5108535;28;20224;-87
2022/11/23 02:45:43;;;;;;;22.33;15.67;;;;;;;;;;5111648;28;20200;-86
2022/11/23 02:48:12;;;;;;;26.13;18.83;;;;;;;;;;5094892;28;20198;-87
2022/11/23 02:50:58;;;;;;;15.83;13.80;;;;;;;;;;5094404;28;20292;-87
2022/11/23 02:53:26;;;;;;;23.33;15.60;;;;;;;;;;5111937;28;20216;-86
2022/11/23 02:55:54;;;;;;;26.43;18.53;;;;;;;;;;5082559;28;20238;-87
2022/11/23 02:58:23;;;;;;;24.43;17.83;;;;;;;;;;5081023;28;20212;-87
2022/11/23 03:00:52;;;;;;;23.50;15.63;;;;;;;;;;5082050;28;20204;-87
2022/11/23 03:03:21;;;;;;;21.50;16.40;;;;;;;;;;5093435;28;20246;-87
2022/11/23 03:05:49;;;;;;;25.77;19.30;;;;;;;;;;5083514;28;20217;-87
2022/11/23 03:08:17;;;;;;;24.27;20.77;;;;;;;;;;5079386;28;20228;-87
2022/11/23 03:10:46;;;;;;;20.17;16.27;;;;;;;;;;5083733;28;20205;-87
2022/11/23 03:13:14;;;;;;;24.73;16.77;;;;;;;;;;5091945;28;20233;-87
2022/11/23 03:15:43;;;;;;;25.37;16.63;;;;;;;;;;5095166;28;20205;-87
2022/11/23 03:18:12;;;;;;;19.37;12.73;;;;;;;;;;5081114;28;20291;-87
2022/11/23 03:20:41;;;;;;;22.43;17.23;;;;;;;;;;5094519;28;20200;-87
2022/11/23 03:23:09;;;;;;;25.63;18.07;;;;;;;;;;5096115;28;20215;-87
2022/11/23 03:25:37;;;;;;;16.63;14.67;;;;;;;;;;5104993;28;20204;-87
2022/11/23 03:28:06;;;;;;;22.37;17.03;;;;;;;;;;5090882;28;20205;-87
2022/11/23 03:30:34;;;;;;;25.77;16.90;;;;;;;;;;5095855;28;20205;-87
2022/11/23 03:33:03;;;;;;;25.00;15.00;;;;;;;;;;5086374;28;20193;-87
2022/11/23 03:35:32;;;;;;;13.33;10.97;;;;;;;;;;5097667;28;20210;-87
2022/11/23 03:38:01;;;;;;;14.40;10.23;;;;;;;;;;5079462;28;20262;-87
2022/11/23 03:40:29;;;;;;;15.40;10.60;;;;;;;;;;5077965;28;20210;-87
2022/11/23 03:42:57;;;;;;;18.50;13.50;;;;;;;;;;5077649;28;20201;-87
2022/11/23 03:45:26;;;;;;;16.87;14.63;;;;;;;;;;5077762;28;20232;-86
2022/11/23 03:47:54;;;;;;;19.67;14.33;;;;;;;;;;5110874;28;20244;-87
2022/11/23 03:50:22;;;;;;;19.83;16.83;;;;;;;;;;5091124;28;20234;-87
2022/11/23 03:52:52;;;;;;;14.37;11.73;;;;;;;;;;5103019;28;20200;-87
2022/11/23 03:55:20;;;;;;;17.13;14.43;;;;;;;;;;5078077;28;20200;-87
2022/11/23 03:57:49;;;;;;;14.30;10.30;;;;;;;;;;5091676;28;20281;-87
2022/11/23 04:00:17;;;;;;;13.10;10.30;;;;;;;;;;5094011;28;20208;-87
2022/11/23 04:02:46;;;;;;;17.17;15.27;;;;;;;;;;5095992;28;20224;-87
2022/11/23 04:05:14;;;;;;;20.27;15.17;;;;;;;;;;5086456;28;20274;-87
2022/11/23 04:07:42;;;;;;;21.77;16.90;;;;;;;;;;5093558;28;20302;-87
2022/11/23 04:10:12;;;;;;;14.77;12.37;;;;;;;;;;5088230;28;20231;-87
2022/11/23 04:12:41;;;;;;;24.00;15.90;;;;;;;;;;5098967;28;20231;-87
2022/11/23 04:15:09;;;;;;;23.20;20.10;;;;;;;;;;5097655;28;20208;-87
2022/11/23 04:17:38;;;;;;;27.23;19.80;;;;;;;;;;5096284;28;20192;-87
2022/11/23 04:20:09;;;;;;;24.63;19.03;;;;;;;;;;5097658;28;20201;-87
2022/11/23 04:22:37;;;;;;;25.10;20.43;;;;;;;;;;5114305;28;20200;-87
2022/11/23 04:25:06;;;;;;;19.53;14.50;;;;;;;;;;5103616;28;20193;-87
2022/11/23 04:27:36;;;;;;;28.17;21.03;;;;;;;;;;5091818;28;20193;-87
2022/11/23 04:30:04;;;;;;;23.53;15.43;;;;;;;;;;5095034;28;20212;-87
2022/11/23 04:32:33;;;;;;;28.73;23.17;;;;;;;;;;5090453;28;20192;-87
2022/11/23 04:35:01;;;;;;;25.63;22.13;;;;;;;;;;5090156;28;20231;-87
2022/11/23 04:37:30;;;;;;;21.03;16.17;;;;;;;;;;5115523;28;20269;-87
2022/11/23 04:39:58;;;;;;;25.20;21.90;;;;;;;;;;5114876;28;20215;-87
2022/11/23 04:42:27;;;;;;;26.80;22.23;;;;;;;;;;5077347;28;20220;-87
2022/11/23 04:44:57;;;;;;;28.53;23.57;;;;;;;;;;5078773;28;20197;-87
2022/11/23 04:47:26;;;;;;;21.03;18.50;;;;;;;;;;5097282;28;20188;-87
2022/11/23 04:49:54;;;;;;;27.27;23.57;;;;;;;;;;5114651;28;20230;-87
2022/11/23 04:52:22;;;;;;;29.10;23.83;;;;;;;;;;5092929;28;20192;-87
2022/11/23 04:54:51;;;;;;;27.37;17.73;;;;;;;;;;5093363;28;20224;-86
2022/11/23 04:57:19;;;;;;;24.23;19.93;;;;;;;;;;5096163;28;20285;-87
2022/11/23 04:59:48;;;;;;;26.77;22.13;;;;;;;;;;5083404;28;20228;-87
2022/11/23 05:02:17;;;;;;;24.67;21.77;;;;;;;;;;5114458;28;20229;-87
2022/11/23 05:04:46;;;;;;;25.43;22.87;;;;;;;;;;5097413;28;20274;-87
2022/11/23 05:07:14;;;;;;;26.20;23.60;;;;;;;;;;5076551;28;20211;-87
2022/11/23 05:09:43;;;;;;;23.70;20.37;;;;;;;;;;5094633;28;20255;-87
2022/11/23 05:12:11;;;;;;;22.47;19.07;;;;;;;;;;5088293;28;20216;-87
2022/11/23 05:14:41;;;;;;;21.73;19.43;;;;;;;;;;5108663;28;20205;-87
2022/11/23 05:17:10;;;;;;;24.63;22.27;;;;;;;;;;5083653;28;20230;-87
2022/11/23 05:19:39;;;;;;;23.57;21.10;;;;;;;;;;5083675;28;20200;-87
2022/11/23 05:22:08;;;;;;;14.90;13.37;;;;;;;;;;5113707;28;20229;-87
2022/11/23 05:24:36;;;;;;;19.60;17.57;;;;;;;;;;5084068;28;20242;-87
2022/11/23 05:27:04;;;;;;;22.60;20.20;;;;;;;;;;5095822;28;20208;-87
2022/11/23 05:29:33;;;;;;;23.93;21.43;;;;;;;;;;5076056;28;20187;-87
2022/11/23 05:32:02;;;;;;;24.47;21.20;;;;;;;;;;5077485;28;20209;-87
2022/11/23 05:34:30;;;;;;;18.93;16.93;;;;;;;;;;5096012;28;20224;-87
2022/11/23 05:37:00;;;;;;;19.63;17.53;;;;;;;;;;5082522;28;20226;-87
2022/11/23 05:39:28;;;;;;;20.20;17.80;;;;;;;;;;5113604;28;20201;-87
2022/11/23 05:41:57;;;;;;;21.50;18.10;;;;;;;;;;5082248;28;20225;-87
2022/11/23 05:44:26;;;;;;;19.97;16.30;;;;;;;;;;5085808;28;20221;-87
2022/11/23 05:46:54;;;;;;;18.87;12.33;;;;;;;;;;5092934;28;20197;-87
2022/11/23 05:49:22;;;;;;;17.23;13.73;;;;;;;;;;5095622;28;20200;-87
2022/11/23 05:51:51;;;;;;;20.23;18.03;;;;;;;;;;5095275;28;20207;-87
2022/11/23 05:54:21;;;;;;;20.67;15.03;;;;;;;;;;5095453;28;20203;-87
2022/11/23 05:56:49;;;;;;;17.17;14.30;;;;;;;;;;5095009;28;20237;-87
2022/11/23 05:59:17;;;;;;;14.93;10.60;;;;;;;;;;5095880;28;20206;-87
2022/11/23 06:01:46;;;;;;;18.93;9.57;;;;;;;;;;5076252;28;20213;-87
2022/11/23 06:04:14;;;;;;;18.70;13.80;;;;;;;;;;5088672;28;20234;-87
2022/11/23 06:06:43;;;;;;;18.50;14.40;;;;;;;;;;5082545;28;20193;-87
2022/11/23 06:09:11;;;;;;;16.80;14.10;;;;;;;;;;5081518;28;20254;-87
2022/11/23 06:11:42;;;;;;;35.07;13.67;;;;;;;;;;5106170;28;20194;-87
2022/11/23 06:14:11;;;;;;;13.47;11.37;;;;;;;;;;5090107;28;20208;-87
2022/11/23 06:16:42;;;;;;;17.03;14.53;;;;;;;;;;5086592;28;20242;-87
2022/11/23 06:19:10;;;;;;;15.73;13.17;;;;;;;;;;5093658;28;20236;-87
2022/11/23 06:21:38;;;;;;;17.60;10.43;;;;;;;;;;5075424;28;20208;-87
2022/11/23 06:24:07;;;;;;;20.90;15.57;;;;;;;;;;5092010;28;20264;-82
2022/11/23 06:26:35;;;;;;;20.43;11.90;;;;;;;;;;5084922;28;20209;-81
2022/11/23 06:29:05;;;;;;;28.13;14.27;;;;;;;;;;5079556;28;20242;-81
2022/11/23 06:31:33;;;;;;;17.23;13.57;;;;;;;;;;5083712;28;20256;-81
2022/11/23 06:34:02;;;;;;;18.83;13.57;;;;;;;;;;5093788;28;20259;-81
2022/11/23 06:36:30;;;;;;;17.73;13.20;;;;;;;;;;5113584;28;20223;-81
2022/11/23 06:38:58;;;;;;;13.73;7.57;;;;;;;;;;5081368;28;20206;-81
2022/11/23 06:41:27;;;;;;;15.57;10.93;;;;;;;;;;5112139;28;20205;-80
2022/11/23 06:43:59;;;;;;;20.73;13.47;;;;;;;;;;5075182;28;20208;-81
2022/11/23 06:46:29;;;;;;;13.27;10.57;;;;;;;;;;5089223;28;20198;-81
2022/11/23 06:48:58;;;;;;;16.27;10.70;;;;;;;;;;5095612;28;20201;-81
2022/11/23 06:51:26;;;;;;;17.63;15.83;;;;;;;;;;5098009;28;20222;-81
2022/11/23 06:53:54;;;;;;;14.97;11.40;;;;;;;;;;5090504;28;20288;-82
2022/11/23 06:56:23;;;;;;;13.87;8.70;;;;;;;;;;5079257;28;20217;-82
2022/11/23 06:58:52;;;;;;;18.17;13.57;;;;;;;;;;5079047;28;20206;-82
2022/11/23 07:01:20;;;;;;;17.63;14.77;;;;;;;;;;5095374;28;20189;-82
2022/11/23 07:03:50;;;;;;;15.77;11.70;;;;;;;;;;5088830;28;20228;-82
2022/11/23 07:06:18;;;;;;;20.53;13.53;;;;;;;;;;5096259;28;20224;-82
2022/11/23 07:08:47;;;;;;;15.90;13.40;;;;;;;;;;5095321;28;20304;-82
2022/11/23 07:11:15;;;;;;;19.27;14.93;;;;;;;;;;5114846;28;20267;-82
2022/11/23 07:13:43;;;;;;;10.67;8.07;;;;;;;;;;5099134;28;20197;-82
2022/11/23 07:16:12;;;;;;;18.60;14.53;;;;;;;;;;5098438;28;20228;-81
2022/11/23 07:18:40;;;;;;;19.97;13.00;;;;;;;;;;5085897;28;20202;-82
2022/11/23 07:21:10;;;;;;;17.37;15.57;;;;;;;;;;5116569;28;20201;-82
2022/11/23 07:23:40;;;;;;;16.47;13.73;;;;;;;;;;5085300;28;20200;-82
2022/11/23 07:26:09;;;;;;;23.97;16.30;;;;;;;;;;5099037;28;20202;-82
2022/11/23 07:28:37;;;;;;;25.33;19.07;;;;;;;;;;5098332;28;20210;-82
2022/11/23 07:31:05;;;;;;;20.47;16.37;;;;;;;;;;5096314;28;20199;-81
2022/11/23 07:33:34;;;;;;;20.17;16.47;;;;;;;;;;5110559;28;20210;-82
2022/11/23 07:36:03;;;;;;;23.53;16.70;;;;;;;;;;5115978;28;20213;-82
2022/11/23 07:38:33;;;;;;;19.27;15.63;;;;;;;;;;5115869;28;20196;-82
2022/11/23 07:41:02;;;;;;;24.97;14.70;;;;;;;;;;5098296;28;20197;-82
2022/11/23 07:43:31;;;;;;;15.03;12.07;;;;;;;;;;5098055;28;20240;-81
2022/11/23 07:45:59;;;;;;;17.93;11.53;;;;;;;;;;5116139;28;20246;-82
2022/11/23 07:48:27;;;;;;;19.90;14.73;;;;;;;;;;5084451;28;20222;-81
2022/11/23 07:51:03;;;;;;;13.80;11.67;;;;;;;;;;5116181;28;20203;-82
2022/11/23 07:53:34;;;;;;;18.73;12.33;;;;;;;;;;5078994;28;20236;-81
2022/11/23 07:56:03;;;;;;;25.90;15.53;;;;;;;;;;5078441;28;20267;-82
2022/11/23 07:58:32;;;;;;;23.33;13.63;;;;;;;;;;5097617;28;20193;-82
2022/11/23 08:01:01;;;;;;;18.90;11.13;;;;;;;;;;5097492;28;20220;-81
2022/11/23 08:03:29;;;;;;;19.53;12.47;;;;;;;;;;5085679;28;20217;-81
2022/11/23 08:05:58;;;;;;;18.20;10.93;;;;;;;;;;5096740;28;20204;-82
2022/11/23 08:08:26;;;;;;;15.73;8.00;;;;;;;;;;5086467;28;20221;-82
2022/11/23 08:10:56;;;;;;;16.47;9.20;;;;;;;;;;5100751;28;20241;-82
2022/11/23 08:13:25;;;;;;;11.80;7.40;;;;;;;;;;5098070;28;20208;-82
2022/11/23 08:15:53;;;;;;;16.93;7.40;;;;;;;;;;5097462;28;20242;-82
2022/11/23 08:18:23;;;;;;;14.73;7.53;;;;;;;;;;5115962;28;20249;-82
2022/11/23 08:20:52;;;;;;;12.10;5.63;;;;;;;;;;5110688;28;20288;-82
2022/11/23 08:23:21;;;;;;;13.37;5.73;;;;;;;;;;5089343;28;20211;-83
2022/11/23 08:25:49;;;;;;;14.70;5.80;;;;;;;;;;5114726;28;20196;-82
2022/11/23 08:28:19;;;;;;;9.53;5.53;;;;;;;;;;5096579;28;20209;-82
2022/11/23 08:30:48;;;;;;;14.37;6.10;;;;;;;;;;5100380;28;20222;-82
2022/11/23 08:33:17;;;;;;;10.50;5.60;;;;;;;;;;5115588;28;20204;-82
2022/11/23 08:35:45;;;;;;;11.63;4.50;;;;;;;;;;5078423;28;20209;-82
2022/11/23 08:38:14;;;;;;;10.13;4.97;;;;;;;;;;5107427;28;20221;-83
2022/11/23 08:40:42;;;;;;;9.23;3.70;;;;;;;;;;5093917;28;20217;-82
2022/11/23 08:43:11;;;;;;;15.57;6.00;;;;;;;;;;5089990;28;20197;-81
2022/11/23 08:45:40;;;;;;;10.07;6.00;;;;;;;;;;5114132;28;20249;-83
2022/11/23 08:48:10;;;;;;;7.07;2.97;;;;;;;;;;5100921;28;20267;-87
2022/11/23 08:50:38;;;;;;;12.87;6.03;;;;;;;;;;5085131;28;20208;-83
2022/11/23 08:53:07;;;;;;;9.20;4.23;;;;;;;;;;5096269;28;20188;-83
2022/11/23 08:55:36;;;;;;;13.63;5.40;;;;;;;;;;5104657;28;20181;-83
2022/11/23 08:58:06;;;;;;;14.87;6.53;;;;;;;;;;5092358;28;20209;-83
2022/11/23 09:00:42;;;;;;;16.10;7.00;;;;;;;;;;5092942;28;20203;-82
2022/11/23 09:03:12;;;;;;;10.30;4.93;;;;;;;;;;5091727;28;20196;-82
2022/11/23 09:05:47;;;;;;;19.67;6.77;;;;;;;;;;5081882;28;20205;-85
2022/11/23 09:08:15;;;;;;;16.33;7.13;;;;;;;;;;5085949;28;20193;-84
2022/11/23 09:10:44;;;;;;;11.00;5.17;;;;;;;;;;5071431;28;20244;-84
2022/11/23 09:13:13;;;;;;;15.40;5.53;;;;;;;;;;5064889;28;20248;-82
2022/11/23 09:15:43;;;;;;;12.97;6.17;;;;;;;;;;5080281;28;20229;-83
2022/11/23 09:18:11;;;;;;;12.10;5.30;;;;;;;;;;5080966;28;20317;-83
2022/11/23 09:20:40;;;;;;;15.47;6.30;;;;;;;;;;5064596;28;20290;-82
2022/11/23 09:23:09;;;;;;;13.10;6.10;;;;;;;;;;5065875;28;20194;-84
2022/11/23 09:25:46;;;;;;;9.03;4.63;;;;;;;;;;5084565;28;20211;-83
2022/11/23 09:28:15;;;;;;;10.77;6.07;;;;;;;;;;5062313;28;20227;-83
2022/11/23 09:30:45;;;;;;;14.27;5.80;;;;;;;;;;5066995;28;20237;-82
2022/11/23 09:33:13;;;;;;;11.73;5.07;;;;;;;;;;5085134;28;20264;-84
2022/11/23 09:35:42;;;;;;;12.37;5.80;;;;;;;;;;5068521;28;20198;-83
2022/11/23 09:38:11;;;;;;;9.10;4.70;;;;;;;;;;5080836;28;20215;-83
2022/11/23 09:40:40;;;;;;;14.23;6.10;;;;;;;;;;5066404;28;20283;-84
2022/11/23 09:43:17;;;;;;;13.80;4.80;;;;;;;;;;5071643;28;20199;-84
2022/11/23 09:45:50;;;;;;;11.67;4.73;;;;;;;;;;5058238;28;20217;-84
2022/11/23 09:48:27;;;;;;;18.83;7.17;;;;;;;;;;5061720;28;20200;-84
2022/11/23 09:50:57;;;;;;;14.03;4.63;;;;;;;;;;5069910;28;20213;-84
2022/11/23 09:53:28;;;;;;;11.87;5.33;;;;;;;;;;5082509;28;20197;-84
2022/11/23 09:55:58;;;;;;;9.77;3.00;;;;;;;;;;5088251;28;20202;-83
2022/11/23 09:58:32;;;;;;;10.37;3.47;;;;;;;;;;5070228;28;20206;-84
2022/11/23 10:01:08;;;;;;;15.03;5.63;;;;;;;;;;5059990;28;20299;-84
2022/11/23 10:03:38;;;;;;;16.53;5.80;;;;;;;;;;5065237;28;20229;-86
2022/11/23 10:06:17;;;;;;;10.43;5.30;;;;;;;;;;5061585;28;20204;-82
2022/11/23 10:08:52;;;;;;;10.70;4.37;;;;;;;;;;5077773;28;20232;-87
2022/11/23 10:11:47;;;;;;;13.47;4.10;;;;;;;;;;5065651;28;20386;-86
2022/11/23 10:14:25;;;;;;;12.00;5.30;;;;;;;;;;5060506;28;20218;-85
2022/11/23 10:17:03;;;;;;;8.73;3.63;;;;;;;;;;5065815;28;20201;-83
2022/11/23 10:19:38;;;;;;;9.73;2.40;;;;;;;;;;5061504;28;20273;-84
2022/11/23 10:22:11;;;;;;;14.53;5.27;;;;;;;;;;5064607;28;20201;-84
2022/11/23 10:24:43;;;;;;;12.43;4.90;;;;;;;;;;5069742;28;20205;-84
2022/11/23 10:27:15;;;;;;;5.87;3.10;;;;;;;;;;5070654;28;20288;-86
2022/11/23 10:29:43;;;;;;;13.70;5.30;;;;;;;;;;5062313;28;20201;-83
2022/11/23 10:32:21;;;;;;;11.07;4.47;;;;;;;;;;5068708;28;20317;-84
2022/11/23 10:34:55;;;;;;;17.07;4.50;;;;;;;;;;5068208;28;20212;-86
2022/11/23 10:37:23;;;;;;;12.33;4.17;;;;;;;;;;5081564;28;20226;-84
2022/11/23 10:39:52;;;;;;;10.33;3.57;;;;;;;;;;5081676;28;20256;-84
2022/11/23 10:42:24;;;;;;;10.27;4.37;;;;;;;;;;5067092;28;20207;-86
2022/11/23 10:44:53;;;;;;;15.53;6.27;;;;;;;;;;5064599;28;20205;-86
2022/11/23 10:47:36;;;;;;;10.00;4.47;;;;;;;;;;5067143;28;20288;-85
2022/11/23 10:50:20;;;;;;;11.17;3.97;;;;;;;;;;5068879;28;20213;-83
2022/11/23 10:52:50;;;;;;;4.93;3.10;;;;;;;;;;5066673;28;20199;-83
2022/11/23 10:55:23;;;;;;;12.40;4.10;;;;;;;;;;5064746;28;20276;-82
2022/11/23 10:57:51;;;;;;;14.73;4.97;;;;;;;;;;5067554;28;20214;-83
2022/11/23 11:00:21;;;;;;;11.03;4.90;;;;;;;;;;5068966;28;20190;-83
2022/11/23 11:02:59;;;;;;;12.23;6.17;;;;;;;;;;5065207;28;20212;-83
2022/11/23 11:05:29;;;;;;;10.93;3.67;;;;;;;;;;5063800;28;20222;-82
2022/11/23 11:08:18;;;;;;;14.83;5.83;;;;;;;;;;5067721;28;20203;-83
2022/11/23 11:10:57;;;;;;;6.80;4.30;;;;;;;;;;5096616;27;20250;-85
2022/11/23 11:13:28;;;;;;;14.27;6.47;;;;;;;;;;5088072;28;20285;-86
2022/11/23 11:16:01;;;;;;;14.40;5.90;;;;;;;;;;5083230;28;20206;-86
2022/11/23 11:18:32;;;;;;;9.60;4.00;;;;;;;;;;5085757;28;20223;-85
2022/11/23 11:21:03;;;;;;;14.40;6.67;;;;;;;;;;5082716;28;20197;-83
2022/11/23 11:23:32;;;;;;;10.73;5.13;;;;;;;;;;5084122;28;20198;-81
2022/11/23 11:26:12;;;;;;;12.53;6.00;;;;;;;;;;5086784;28;20563;-82
2022/11/23 11:28:42;;;;;;;12.97;5.53;;;;;;;;;;5086492;28;20211;-83
2022/11/23 11:31:27;;;;;;;10.40;4.70;;;;;;;;;;5085892;28;20212;-82
2022/11/23 11:34:01;;;;;;;12.67;5.70;;;;;;;;;;5084596;28;20206;-82
2022/11/23 11:36:35;;;;;;;12.83;6.07;;;;;;;;;;5087164;28;20207;-85
2022/11/23 11:39:07;;;;;;;11.13;5.47;;;;;;;;;;5088964;28;20281;-84
2022/11/23 11:41:48;;;;;;;4.27;2.50;;;;;;;;;;5086116;28;20205;-83
2022/11/23 11:44:24;;;;;;;8.50;5.30;;;;;;;;;;5085956;28;20205;-88
2022/11/23 11:46:57;;;;;;;8.30;5.27;;;;;;;;;;5084641;28;20196;-82
2022/11/23 11:49:35;;;;;;;9.47;5.00;;;;;;;;;;5086802;28;20208;-83
2022/11/23 11:52:07;;;;;;;13.90;5.47;;;;;;;;;;5102042;27;20204;-81
2022/11/23 11:54:38;;;;;;;11.87;5.53;;;;;;;;;;5083162;28;20365;-83
2022/11/23 11:57:11;;;;;;;9.40;5.37;;;;;;;;;;5087119;28;20205;-85
2022/11/23 11:59:42;;;;;;;8.93;4.73;;;;;;;;;;5081676;28;20224;-85
2022/11/23 12:02:18;;;;;;;9.20;5.17;;;;;;;;;;5083328;28;20216;-84
2022/11/23 12:04:51;;;;;;;8.50;4.40;;;;;;;;;;5084922;28;20221;-84
2022/11/23 12:07:24;;;;;;;8.43;5.03;;;;;;;;;;5086548;28;20449;-82
2022/11/23 12:09:56;;;;;;;8.43;4.37;;;;;;;;;;5086410;28;20195;-82
2022/11/23 12:12:25;;;;;;;8.63;3.83;;;;;;;;;;5085227;28;20252;-83
2022/11/23 12:14:57;;;;;;;4.90;3.00;;;;;;;;;;5090669;28;20200;-83
2022/11/23 12:17:44;;;;;;;12.40;5.17;;;;;;;;;;5086642;28;20227;-85
2022/11/23 12:20:18;;;;;;;8.43;4.33;;;;;;;;;;5092063;28;20202;-84
2022/11/23 12:22:54;;;;;;;8.60;4.90;;;;;;;;;;5100997;28;20210;-82
2022/11/23 12:25:32;;;;;;;10.13;5.97;;;;;;;;;;5085336;28;20273;-84
2022/11/23 12:28:08;;;;;;;11.00;4.53;;;;;;;;;;5088055;28;20255;-84
2022/11/23 12:30:41;;;;;;;7.13;3.77;;;;;;;;;;5087148;28;20432;-84
2022/11/23 12:33:31;;;;;;;19.13;4.87;;;;;;;;;;5085014;28;20274;-84
2022/11/23 12:36:14;;;;;;;10.53;4.20;;;;;;;;;;5088327;28;20206;-84
2022/11/23 12:38:54;;;;;;;9.10;5.63;;;;;;;;;;5090064;28;20221;-85
2022/11/23 12:41:25;;;;;;;8.77;4.80;;;;;;;;;;5090736;28;20200;-85
2022/11/23 12:44:01;;;;;;;8.50;4.67;;;;;;;;;;5086704;28;20210;-84
2022/11/23 12:46:35;;;;;;;10.00;3.73;;;;;;;;;;5101477;27;20301;-86
2022/11/23 12:49:11;;;;;;;8.20;4.47;;;;;;;;;;5082851;28;20197;-85
2022/11/23 12:51:46;;;;;;;6.57;3.97;;;;;;;;;;5080543;28;20208;-85
2022/11/23 12:54:23;;;;;;;8.07;4.60;;;;;;;;;;5089450;28;20209;-85
2022/11/23 12:56:59;;;;;;;7.83;3.30;;;;;;;;;;5087911;28;20923;-85
2022/11/23 12:59:40;;;;;;;7.77;4.37;;;;;;;;;;5103294;28;20209;-85
2022/11/23 13:02:12;;;;;;;7.40;4.07;;;;;;;;;;5084186;28;20302;-85
2022/11/23 13:04:59;;;;;;;8.03;3.10;;;;;;;;;;5084516;28;20221;-84
2022/11/23 13:07:52;;;;;;;9.00;4.30;;;;;;;;;;5100942;28;20205;-82
2022/11/23 13:10:34;;;;;;;8.73;3.93;;;;;;;;;;5074055;28;20269;-85
2022/11/23 13:13:11;;;;;;;7.17;3.17;;;;;;;;;;5084018;28;20206;-83
2022/11/23 13:15:53;;;;;;;11.33;3.30;;;;;;;;;;5100981;28;20286;-83
2022/11/23 13:18:28;;;;;;;7.47;2.93;;;;;;;;;;5099209;28;20341;-81
2022/11/23 13:21:04;;;;;;;4.77;3.43;;;;;;;;;;5084216;28;20197;-83
2022/11/23 13:23:35;;;;;;;9.33;4.00;;;;;;;;;;5082464;28;20201;-84
2022/11/23 13:26:19;;;;;;;11.03;4.03;;;;;;;;;;5099696;28;20205;-84
2022/11/23 13:28:49;;;;;;;10.47;4.03;;;;;;;;;;5099314;28;20207;-84
2022/11/23 13:31:19;;;;;;;7.37;3.90;;;;;;;;;;5082696;28;20255;-84
2022/11/23 13:33:53;;;;;;;6.77;3.90;;;;;;;;;;5083290;28;20207;-85
2022/11/23 13:36:37;;;;;;;7.50;3.13;;;;;;;;;;5089791;28;20199;-83
2022/11/23 13:39:53;;;;;;;3.50;2.30;;;;;;;;;;5089212;28;20299;-83
2022/11/23 13:42:24;;;;;;;7.10;3.40;;;;;;;;;;5042873;28;20202;-81
2022/11/23 13:45:07;;;;;;;9.80;4.40;;;;;;;;;;5086776;28;20258;-80
2022/11/23 13:47:39;;;;;;;9.13;3.57;;;;;;;;;;5091094;28;20291;-80
2022/11/23 13:50:18;;;;;;;6.87;3.87;;;;;;;;;;5085777;28;20201;-80
2022/11/23 13:52:52;;;;;;;8.90;3.63;;;;;;;;;;5100244;27;20211;-80
2022/11/23 13:55:22;;;;;;;6.70;3.37;;;;;;;;;;5102382;28;20212;-79
2022/11/23 13:58:17;;;;;;;6.97;4.60;;;;;;;;;;5102616;28;20211;-80
2022/11/23 14:00:51;;;;;;;10.90;4.50;;;;;;;;;;5049342;28;20249;-82
2022/11/23 14:03:39;;;;;;;9.17;3.43;;;;;;;;;;5102998;28;20232;-80
2022/11/23 14:06:11;;;;;;;9.13;4.90;;;;;;;;;;5081454;28;20196;-81
2022/11/23 14:08:42;;;;;;;11.57;5.50;;;;;;;;;;5102911;28;20197;-81
2022/11/23 14:11:34;;;;;;;8.80;4.57;;;;;;;;;;5085955;27;20525;-81
2022/11/23 14:14:05;;;;;;;8.93;5.20;;;;;;;;;;5063512;28;20216;-80
2022/11/23 14:16:44;;;;;;;12.43;5.97;;;;;;;;;;5067560;28;20194;-81
2022/11/23 14:19:22;;;;;;;9.53;5.30;;;;;;;;;;5068760;28;20207;-81
2022/11/23 14:21:56;;;;;;;7.00;5.53;;;;;;;;;;5060903;28;20202;-81
2022/11/23 14:24:37;;;;;;;10.57;4.90;;;;;;;;;;5065867;28;20219;-82
2022/11/23 14:27:16;;;;;;;9.10;4.53;;;;;;;;;;5072542;28;20236;-80
2022/11/23 14:30:19;;;;;;;8.10;3.77;;;;;;;;;;5065222;28;20241;-82
2022/11/23 14:32:53;;;;;;;9.00;3.63;;;;;;;;;;5077724;28;20202;-79
2022/11/23 14:35:32;;;;;;;4.03;2.97;;;;;;;;;;5081333;28;20193;-80
2022/11/23 14:38:15;;;;;;;5.80;3.87;;;;;;;;;;5070937;28;20198;-81
2022/11/23 14:40:49;;;;;;;10.40;6.40;;;;;;;;;;5048582;28;20213;-80
2022/11/23 14:43:21;;;;;;;6.03;4.17;;;;;;;;;;5079321;28;20271;-81
2022/11/23 14:45:52;;;;;;;7.87;4.20;;;;;;;;;;5076655;28;20217;-81
2022/11/23 14:48:21;;;;;;;6.47;3.50;;;;;;;;;;5066509;28;20248;-81
2022/11/23 14:50:57;;;;;;;9.17;4.03;;;;;;;;;;5071925;28;20217;-81